Terminal Aerodrome Forecast
Issued by NWS Wilmington, NC

Home | Current Version | Previous Version | Text Only | Print | Product List | Glossary On
Versions: 1 2 3 4 5 6 7 8 9 10 11 12 13 14 15 16 17 18
000
FTUS42 KILM 231700 CCA
TAFMYR
TAF COR
KMYR 231728Z 2318/2418 14009KT P6SM VCSH SCT025 SCT060
      TEMPO 2320/2324 VRB15KT 3SM -TSRA BKN020CB
     FM240300 06004KT P6SM VCSH SCT018 OVC040
     FM240700 05008KT P6SM BKN018 BKN050 OVC100
     FM241300 05014KT P6SM BKN030 BKN100=

USA.gov is the U.S. government's official web portal to all federal, state and local government web resources and services.